sensor_id;sensor_type;location;lat;lon;timestamp;temperature;humidity
41944;DHT22;27636;52.610;13.244;2024-02-15T00:02:01;9.30;99.90
41944;DHT22;27636;52.610;13.244;2024-02-15T00:07:05;9.20;99.90
41944;DHT22;27636;52.610;13.244;2024-02-15T00:12:09;9.30;99.90
41944;DHT22;27636;52.610;13.244;2024-02-15T00:17:15;9.30;99.90
41944;DHT22;27636;52.610;13.244;2024-02-15T00:22:22;9.30;99.90
41944;DHT22;27636;52.610;13.244;2024-02-15T00:27:28;9.30;99.90
41944;DHT22;27636;52.610;13.244;2024-02-15T00:32:36;9.20;99.90
41944;DHT22;27636;52.610;13.244;2024-02-15T00:37:42;9.30;99.90
41944;DHT22;27636;52.610;13.244;2024-02-15T00:42:48;9.20;99.90
41944;DHT22;27636;52.610;13.244;2024-02-15T00:47:54;9.40;99.90
41944;DHT22;27636;52.610;13.244;2024-02-15T00:53:00;9.40;99.90
41944;DHT22;27636;52.610;13.244;2024-02-15T00:58:04;9.30;99.90
41944;DHT22;27636;52.610;13.244;2024-02-15T01:03:13;9.30;99.90
41944;DHT22;27636;52.610;13.244;2024-02-15T01:08:17;9.40;99.90
41944;DHT22;27636;52.610;13.244;2024-02-15T01:13:22;9.30;99.90
41944;DHT22;27636;52.610;13.244;2024-02-15T01:18:29;9.40;99.90
41944;DHT22;27636;52.610;13.244;2024-02-15T01:23:35;9.30;99.90
41944;DHT22;27636;52.610;13.244;2024-02-15T01:28:40;9.40;99.90
41944;DHT22;27636;52.610;13.244;2024-02-15T01:33:48;9.40;99.90
41944;DHT22;27636;52.610;13.244;2024-02-15T01:38:52;9.40;99.90
41944;DHT22;27636;52.610;13.244;2024-02-15T01:43:56;9.40;99.90
41944;DHT22;27636;52.610;13.244;2024-02-15T01:49:01;9.60;99.90
41944;DHT22;27636;52.610;13.244;2024-02-15T01:54:06;9.50;99.90
41944;DHT22;27636;52.610;13.244;2024-02-15T01:59:13;9.40;99.90
41944;DHT22;27636;52.610;13.244;2024-02-15T02:04:20;9.40;99.90
41944;DHT22;27636;52.610;13.244;2024-02-15T02:09:24;9.40;99.90
41944;DHT22;27636;52.610;13.244;2024-02-15T02:14:28;9.40;99.90
41944;DHT22;27636;52.610;13.244;2024-02-15T02:19:38;9.40;99.90
41944;DHT22;27636;52.610;13.244;2024-02-15T02:24:55;9.40;99.90
41944;DHT22;27636;52.610;13.244;2024-02-15T02:30:00;9.50;99.90
41944;DHT22;27636;52.610;13.244;2024-02-15T02:35:05;9.40;99.90
41944;DHT22;27636;52.610;13.244;2024-02-15T02:40:12;9.60;99.90
41944;DHT22;27636;52.610;13.244;2024-02-15T02:45:17;9.60;99.90
41944;DHT22;27636;52.610;13.244;2024-02-15T02:50:24;9.40;99.90
41944;DHT22;27636;52.610;13.244;2024-02-15T02:55:29;9.70;99.90
41944;DHT22;27636;52.610;13.244;2024-02-15T03:00:34;9.60;99.90
41944;DHT22;27636;52.610;13.244;2024-02-15T03:05:38;9.60;99.90
41944;DHT22;27636;52.610;13.244;2024-02-15T03:10:49;9.60;99.90
41944;DHT22;27636;52.610;13.244;2024-02-15T03:15:52;9.60;99.90
41944;DHT22;27636;52.610;13.244;2024-02-15T03:20:57;9.60;99.90
41944;DHT22;27636;52.610;13.244;2024-02-15T03:26:03;9.50;99.90
41944;DHT22;27636;52.610;13.244;2024-02-15T03:31:11;9.50;99.90
41944;DHT22;27636;52.610;13.244;2024-02-15T03:36:16;9.50;99.90
41944;DHT22;27636;52.610;13.244;2024-02-15T03:41:27;9.60;99.90
41944;DHT22;27636;52.610;13.244;2024-02-15T03:46:35;9.60;99.90
41944;DHT22;27636;52.610;13.244;2024-02-15T03:51:38;9.50;99.90
41944;DHT22;27636;52.610;13.244;2024-02-15T03:56:48;9.70;99.90
41944;DHT22;27636;52.610;13.244;2024-02-15T04:01:56;9.60;99.90
41944;DHT22;27636;52.610;13.244;2024-02-15T04:07:01;9.50;99.90
41944;DHT22;27636;52.610;13.244;2024-02-15T04:12:07;9.60;99.90
41944;DHT22;27636;52.610;13.244;2024-02-15T04:17:11;9.70;99.90
41944;DHT22;27636;52.610;13.244;2024-02-15T04:22:20;9.70;99.90
41944;DHT22;27636;52.610;13.244;2024-02-15T04:27:25;9.70;99.90
41944;DHT22;27636;52.610;13.244;2024-02-15T04:32:31;9.70;99.90
41944;DHT22;27636;52.610;13.244;2024-02-15T04:37:38;9.70;99.90
41944;DHT22;27636;52.610;13.244;2024-02-15T04:42:43;9.60;99.90
41944;DHT22;27636;52.610;13.244;2024-02-15T04:47:49;9.50;99.90
41944;DHT22;27636;52.610;13.244;2024-02-15T04:52:56;9.70;99.90
41944;DHT22;27636;52.610;13.244;2024-02-15T04:58:05;9.70;99.90
41944;DHT22;27636;52.610;13.244;2024-02-15T05:03:09;9.60;99.90
41944;DHT22;27636;52.610;13.244;2024-02-15T05:08:15;9.80;99.90
41944;DHT22;27636;52.610;13.244;2024-02-15T05:13:21;9.70;99.90
41944;DHT22;27636;52.610;13.244;2024-02-15T05:18:28;9.70;99.90
41944;DHT22;27636;52.610;13.244;2024-02-15T05:23:34;9.70;99.90
41944;DHT22;27636;52.610;13.244;2024-02-15T05:28:41;9.70;99.90
41944;DHT22;27636;52.610;13.244;2024-02-15T05:33:48;9.70;99.90
41944;DHT22;27636;52.610;13.244;2024-02-15T05:38:53;9.70;99.90
41944;DHT22;27636;52.610;13.244;2024-02-15T05:43:59;9.70;99.90
41944;DHT22;27636;52.610;13.244;2024-02-15T05:49:06;9.80;99.90
41944;DHT22;27636;52.610;13.244;2024-02-15T05:54:12;9.80;99.90
41944;DHT22;27636;52.610;13.244;2024-02-15T05:59:22;9.90;99.90
41944;DHT22;27636;52.610;13.244;2024-02-15T06:04:27;9.80;99.90
41944;DHT22;27636;52.610;13.244;2024-02-15T06:09:34;9.70;99.90
41944;DHT22;27636;52.610;13.244;2024-02-15T06:14:41;9.70;99.90
41944;DHT22;27636;52.610;13.244;2024-02-15T06:19:46;9.80;99.90
41944;DHT22;27636;52.610;13.244;2024-02-15T06:24:50;9.70;99.90
41944;DHT22;27636;52.610;13.244;2024-02-15T06:29:56;9.70;99.90
41944;DHT22;27636;52.610;13.244;2024-02-15T06:35:19;9.80;99.90
41944;DHT22;27636;52.610;13.244;2024-02-15T06:40:41;9.80;99.90
41944;DHT22;27636;52.610;13.244;2024-02-15T06:45:47;9.90;99.90
41944;DHT22;27636;52.610;13.244;2024-02-15T06:50:55;9.90;99.90
41944;DHT22;27636;52.610;13.244;2024-02-15T06:55:59;9.90;99.90
41944;DHT22;27636;52.610;13.244;2024-02-15T07:01:08;10.00;99.90
41944;DHT22;27636;52.610;13.244;2024-02-15T07:06:12;10.00;99.90
41944;DHT22;27636;52.610;13.244;2024-02-15T07:11:19;10.10;99.90
41944;DHT22;27636;52.610;13.244;2024-02-15T07:16:25;10.10;99.90
41944;DHT22;27636;52.610;13.244;2024-02-15T07:21:29;10.10;99.90
41944;DHT22;27636;52.610;13.244;2024-02-15T07:26:35;10.30;99.90
41944;DHT22;27636;52.610;13.244;2024-02-15T07:31:49;10.20;99.90
41944;DHT22;27636;52.610;13.244;2024-02-15T07:36:53;10.20;99.90
41944;DHT22;27636;52.610;13.244;2024-02-15T07:41:57;10.30;99.90
41944;DHT22;27636;52.610;13.244;2024-02-15T07:47:05;10.40;99.90
41944;DHT22;27636;52.610;13.244;2024-02-15T07:52:09;10.50;99.90
41944;DHT22;27636;52.610;13.244;2024-02-15T07:57:14;10.80;99.90
41944;DHT22;27636;52.610;13.244;2024-02-15T08:02:19;10.80;99.90
41944;DHT22;27636;52.610;13.244;2024-02-15T08:07:28;11.00;99.90
41944;DHT22;27636;52.610;13.244;2024-02-15T08:12:35;10.90;99.90
41944;DHT22;27636;52.610;13.244;2024-02-15T08:17:42;11.00;99.90
41944;DHT22;27636;52.610;13.244;2024-02-15T08:22:52;11.10;99.90
41944;DHT22;27636;52.610;13.244;2024-02-15T08:27:56;11.10;99.90
41944;DHT22;27636;52.610;13.244;2024-02-15T08:33:01;11.00;99.90
41944;DHT22;27636;52.610;13.244;2024-02-15T08:38:05;11.00;99.90
41944;DHT22;27636;52.610;13.244;2024-02-15T08:43:09;11.20;99.90
41944;DHT22;27636;52.610;13.244;2024-02-15T08:48:15;11.10;99.90
41944;DHT22;27636;52.610;13.244;2024-02-15T08:53:20;11.10;99.90
41944;DHT22;27636;52.610;13.244;2024-02-15T08:58:26;11.30;99.90
41944;DHT22;27636;52.610;13.244;2024-02-15T09:03:34;11.50;99.90
41944;DHT22;27636;52.610;13.244;2024-02-15T09:08:40;11.60;99.90
41944;DHT22;27636;52.610;13.244;2024-02-15T09:13:44;11.90;99.90
41944;DHT22;27636;52.610;13.244;2024-02-15T09:18:50;12.10;99.90
41944;DHT22;27636;52.610;13.244;2024-02-15T09:23:54;12.20;99.90
41944;DHT22;27636;52.610;13.244;2024-02-15T09:29:01;12.30;99.90
41944;DHT22;27636;52.610;13.244;2024-02-15T09:34:11;12.10;99.90
41944;DHT22;27636;52.610;13.244;2024-02-15T09:39:18;12.00;99.90
41944;DHT22;27636;52.610;13.244;2024-02-15T09:44:22;11.80;99.90
41944;DHT22;27636;52.610;13.244;2024-02-15T09:49:35;11.90;99.90
41944;DHT22;27636;52.610;13.244;2024-02-15T09:54:40;11.80;99.90
41944;DHT22;27636;52.610;13.244;2024-02-15T09:59:47;12.20;99.90
41944;DHT22;27636;52.610;13.244;2024-02-15T10:05:09;12.20;99.90
41944;DHT22;27636;52.610;13.244;2024-02-15T10:10:17;12.50;99.90
41944;DHT22;27636;52.610;13.244;2024-02-15T10:15:28;12.60;99.90
41944;DHT22;27636;52.610;13.244;2024-02-15T10:20:37;12.50;99.90
41944;DHT22;27636;52.610;13.244;2024-02-15T10:25:43;12.80;99.90
41944;DHT22;27636;52.610;13.244;2024-02-15T10:30:48;12.60;99.90
41944;DHT22;27636;52.610;13.244;2024-02-15T10:36:05;12.70;99.90
41944;DHT22;27636;52.610;13.244;2024-02-15T10:41:09;12.80;99.90
41944;DHT22;27636;52.610;13.244;2024-02-15T10:46:14;12.90;99.90
41944;DHT22;27636;52.610;13.244;2024-02-15T10:51:23;13.10;99.90
41944;DHT22;27636;52.610;13.244;2024-02-15T10:56:34;13.60;99.90
41944;DHT22;27636;52.610;13.244;2024-02-15T11:01:43;14.10;99.90
41944;DHT22;27636;52.610;13.244;2024-02-15T11:06:55;14.70;99.90
41944;DHT22;27636;52.610;13.244;2024-02-15T11:12:00;14.60;99.90
41944;DHT22;27636;52.610;13.244;2024-02-15T11:17:05;14.50;99.90
41944;DHT22;27636;52.610;13.244;2024-02-15T11:22:13;14.30;99.90
41944;DHT22;27636;52.610;13.244;2024-02-15T11:27:24;14.00;99.90
41944;DHT22;27636;52.610;13.244;2024-02-15T11:32:40;14.00;99.90
41944;DHT22;27636;52.610;13.244;2024-02-15T11:37:56;14.00;99.90
41944;DHT22;27636;52.610;13.244;2024-02-15T11:43:03;14.00;99.90
41944;DHT22;27636;52.610;13.244;2024-02-15T11:48:08;13.70;99.90
41944;DHT22;27636;52.610;13.244;2024-02-15T11:53:18;13.50;99.90
41944;DHT22;27636;52.610;13.244;2024-02-15T11:58:23;13.30;99.90
41944;DHT22;27636;52.610;13.244;2024-02-15T12:03:34;13.10;99.90
41944;DHT22;27636;52.610;13.244;2024-02-15T12:09:11;13.10;99.90
41944;DHT22;27636;52.610;13.244;2024-02-15T12:14:36;13.10;99.90
41944;DHT22;27636;52.610;13.244;2024-02-15T12:20:01;12.90;99.90
41944;DHT22;27636;52.610;13.244;2024-02-15T12:25:16;13.10;99.90
41944;DHT22;27636;52.610;13.244;2024-02-15T12:30:21;13.10;99.90
41944;DHT22;27636;52.610;13.244;2024-02-15T12:35:27;13.40;99.90
41944;DHT22;27636;52.610;13.244;2024-02-15T12:40:33;13.40;99.90
41944;DHT22;27636;52.610;13.244;2024-02-15T12:45:40;13.50;99.90
41944;DHT22;27636;52.610;13.244;2024-02-15T12:50:45;13.60;99.90
41944;DHT22;27636;52.610;13.244;2024-02-15T12:55:55;14.00;99.90
41944;DHT22;27636;52.610;13.244;2024-02-15T13:01:06;14.10;99.90
41944;DHT22;27636;52.610;13.244;2024-02-15T13:06:14;14.10;99.90
41944;DHT22;27636;52.610;13.244;2024-02-15T13:11:20;14.00;99.90
41944;DHT22;27636;52.610;13.244;2024-02-15T13:16:24;14.30;99.90
41944;DHT22;27636;52.610;13.244;2024-02-15T13:21:28;14.50;99.90
41944;DHT22;27636;52.610;13.244;2024-02-15T13:26:36;14.40;99.90
41944;DHT22;27636;52.610;13.244;2024-02-15T13:31:43;14.50;99.90
41944;DHT22;27636;52.610;13.244;2024-02-15T13:36:47;14.60;99.90
41944;DHT22;27636;52.610;13.244;2024-02-15T13:41:55;14.40;99.90
41944;DHT22;27636;52.610;13.244;2024-02-15T13:47:00;14.10;99.90
41944;DHT22;27636;52.610;13.244;2024-02-15T13:52:06;14.20;99.90
41944;DHT22;27636;52.610;13.244;2024-02-15T13:57:12;14.10;99.90
41944;DHT22;27636;52.610;13.244;2024-02-15T14:02:18;14.40;99.90
41944;DHT22;27636;52.610;13.244;2024-02-15T14:07:23;14.60;99.90
41944;DHT22;27636;52.610;13.244;2024-02-15T14:12:28;14.70;99.90
41944;DHT22;27636;52.610;13.244;2024-02-15T14:17:34;14.50;99.90
41944;DHT22;27636;52.610;13.244;2024-02-15T14:22:38;14.50;99.90
41944;DHT22;27636;52.610;13.244;2024-02-15T14:27:45;14.30;99.90
41944;DHT22;27636;52.610;13.244;2024-02-15T14:32:51;14.00;99.90
41944;DHT22;27636;52.610;13.244;2024-02-15T14:38:09;13.80;99.90
41944;DHT22;27636;52.610;13.244;2024-02-15T14:43:19;13.60;99.90
41944;DHT22;27636;52.610;13.244;2024-02-15T14:48:25;13.60;99.90
41944;DHT22;27636;52.610;13.244;2024-02-15T14:53:30;13.50;99.90
41944;DHT22;27636;52.610;13.244;2024-02-15T14:58:37;13.50;99.90
41944;DHT22;27636;52.610;13.244;2024-02-15T15:03:42;13.40;99.90
41944;DHT22;27636;52.610;13.244;2024-02-15T15:08:47;13.50;99.90
41944;DHT22;27636;52.610;13.244;2024-02-15T15:14:13;13.30;99.90
41944;DHT22;27636;52.610;13.244;2024-02-15T15:19:18;13.40;99.90
41944;DHT22;27636;52.610;13.244;2024-02-15T15:24:22;13.20;99.90
41944;DHT22;27636;52.610;13.244;2024-02-15T15:29:29;13.20;99.90
41944;DHT22;27636;52.610;13.244;2024-02-15T15:34:34;13.10;99.90
41944;DHT22;27636;52.610;13.244;2024-02-15T15:39:39;12.90;99.90
41944;DHT22;27636;52.610;13.244;2024-02-15T15:44:50;12.80;99.90
41944;DHT22;27636;52.610;13.244;2024-02-15T15:49:56;12.90;99.90
41944;DHT22;27636;52.610;13.244;2024-02-15T15:55:02;12.80;99.90
41944;DHT22;27636;52.610;13.244;2024-02-15T16:00:10;12.70;99.90
41944;DHT22;27636;52.610;13.244;2024-02-15T16:05:19;12.60;99.90
41944;DHT22;27636;52.610;13.244;2024-02-15T16:10:27;12.40;99.90
41944;DHT22;27636;52.610;13.244;2024-02-15T16:15:34;12.30;99.90
41944;DHT22;27636;52.610;13.244;2024-02-15T16:20:38;12.10;99.90
41944;DHT22;27636;52.610;13.244;2024-02-15T16:25:43;12.00;99.90
41944;DHT22;27636;52.610;13.244;2024-02-15T16:30:50;11.90;99.90
41944;DHT22;27636;52.610;13.244;2024-02-15T16:35:58;11.90;99.90
41944;DHT22;27636;52.610;13.244;2024-02-15T16:41:03;11.90;99.90
41944;DHT22;27636;52.610;13.244;2024-02-15T16:46:08;11.90;99.90
41944;DHT22;27636;52.610;13.244;2024-02-15T16:51:14;11.90;99.90
41944;DHT22;27636;52.610;13.244;2024-02-15T16:56:18;11.90;99.90
41944;DHT22;27636;52.610;13.244;2024-02-15T17:01:28;11.90;99.90
41944;DHT22;27636;52.610;13.244;2024-02-15T17:06:32;12.00;99.90
41944;DHT22;27636;52.610;13.244;2024-02-15T17:11:37;12.00;99.90
41944;DHT22;27636;52.610;13.244;2024-02-15T17:16:45;11.90;99.90
41944;DHT22;27636;52.610;13.244;2024-02-15T17:21:52;12.00;99.90
41944;DHT22;27636;52.610;13.244;2024-02-15T17:26:55;12.00;99.90
41944;DHT22;27636;52.610;13.244;2024-02-15T17:32:03;11.90;99.90
41944;DHT22;27636;52.610;13.244;2024-02-15T17:37:08;12.00;99.90
41944;DHT22;27636;52.610;13.244;2024-02-15T17:42:22;12.00;99.90
41944;DHT22;27636;52.610;13.244;2024-02-15T17:47:42;12.00;99.90
41944;DHT22;27636;52.610;13.244;2024-02-15T17:52:49;11.90;99.90
41944;DHT22;27636;52.610;13.244;2024-02-15T17:57:53;11.90;99.90
41944;DHT22;27636;52.610;13.244;2024-02-15T18:03:01;11.90;99.90
41944;DHT22;27636;52.610;13.244;2024-02-15T18:08:10;11.90;99.90
41944;DHT22;27636;52.610;13.244;2024-02-15T18:13:20;11.90;99.90
41944;DHT22;27636;52.610;13.244;2024-02-15T18:18:30;11.90;99.90
41944;DHT22;27636;52.610;13.244;2024-02-15T18:23:35;12.00;99.90
41944;DHT22;27636;52.610;13.244;2024-02-15T18:28:40;11.90;99.90
41944;DHT22;27636;52.610;13.244;2024-02-15T18:33:45;11.90;99.90
41944;DHT22;27636;52.610;13.244;2024-02-15T18:38:50;11.90;99.90
41944;DHT22;27636;52.610;13.244;2024-02-15T18:43:54;11.90;99.90
41944;DHT22;27636;52.610;13.244;2024-02-15T18:49:00;11.90;99.90
41944;DHT22;27636;52.610;13.244;2024-02-15T18:54:06;11.90;99.90
41944;DHT22;27636;52.610;13.244;2024-02-15T18:59:10;12.00;99.90
41944;DHT22;27636;52.610;13.244;2024-02-15T19:04:15;12.00;99.90
41944;DHT22;27636;52.610;13.244;2024-02-15T19:09:20;12.10;99.90
41944;DHT22;27636;52.610;13.244;2024-02-15T19:14:30;12.00;99.90
41944;DHT22;27636;52.610;13.244;2024-02-15T19:19:35;12.10;99.90
41944;DHT22;27636;52.610;13.244;2024-02-15T19:24:39;12.10;99.90
41944;DHT22;27636;52.610;13.244;2024-02-15T19:29:44;12.10;99.90
41944;DHT22;27636;52.610;13.244;2024-02-15T19:34:49;12.10;99.90
41944;DHT22;27636;52.610;13.244;2024-02-15T19:39:53;12.10;99.90
41944;DHT22;27636;52.610;13.244;2024-02-15T19:44:57;12.00;99.90
41944;DHT22;27636;52.610;13.244;2024-02-15T19:50:04;12.10;99.90
41944;DHT22;27636;52.610;13.244;2024-02-15T19:55:11;11.90;99.90
41944;DHT22;27636;52.610;13.244;2024-02-15T20:00:23;12.10;99.90
41944;DHT22;27636;52.610;13.244;2024-02-15T20:05:32;12.00;99.90
41944;DHT22;27636;52.610;13.244;2024-02-15T20:10:36;12.00;99.90
41944;DHT22;27636;52.610;13.244;2024-02-15T20:15:41;12.00;99.90
41944;DHT22;27636;52.610;13.244;2024-02-15T20:20:47;12.00;99.90
41944;DHT22;27636;52.610;13.244;2024-02-15T20:25:54;12.00;99.90
41944;DHT22;27636;52.610;13.244;2024-02-15T20:31:02;12.10;99.90
41944;DHT22;27636;52.610;13.244;2024-02-15T20:36:11;12.30;99.90
41944;DHT22;27636;52.610;13.244;2024-02-15T20:41:16;12.20;99.90
41944;DHT22;27636;52.610;13.244;2024-02-15T20:46:25;12.30;99.90
41944;DHT22;27636;52.610;13.244;2024-02-15T20:51:31;12.30;99.90
41944;DHT22;27636;52.610;13.244;2024-02-15T20:56:38;12.30;99.90
41944;DHT22;27636;52.610;13.244;2024-02-15T21:01:42;12.30;99.90
41944;DHT22;27636;52.610;13.244;2024-02-15T21:06:47;12.20;99.90
41944;DHT22;27636;52.610;13.244;2024-02-15T21:11:57;12.20;99.90
41944;DHT22;27636;52.610;13.244;2024-02-15T21:17:01;12.20;99.90
41944;DHT22;27636;52.610;13.244;2024-02-15T21:22:07;12.20;99.90
41944;DHT22;27636;52.610;13.244;2024-02-15T21:27:11;12.20;99.90
41944;DHT22;27636;52.610;13.244;2024-02-15T21:32:16;12.20;99.90
41944;DHT22;27636;52.610;13.244;2024-02-15T21:37:22;12.20;99.90
41944;DHT22;27636;52.610;13.244;2024-02-15T21:42:27;12.10;99.90
41944;DHT22;27636;52.610;13.244;2024-02-15T21:47:31;12.30;99.90
41944;DHT22;27636;52.610;13.244;2024-02-15T21:52:36;12.20;99.90
41944;DHT22;27636;52.610;13.244;2024-02-15T21:57:40;12.20;99.90
41944;DHT22;27636;52.610;13.244;2024-02-15T22:02:44;12.10;99.90
41944;DHT22;27636;52.610;13.244;2024-02-15T22:07:49;12.10;99.90
41944;DHT22;27636;52.610;13.244;2024-02-15T22:12:54;12.10;99.90
41944;DHT22;27636;52.610;13.244;2024-02-15T22:17:57;12.00;99.90
41944;DHT22;27636;52.610;13.244;2024-02-15T22:23:04;12.10;99.90
41944;DHT22;27636;52.610;13.244;2024-02-15T22:28:07;12.30;99.90
41944;DHT22;27636;52.610;13.244;2024-02-15T22:33:11;12.10;99.90
41944;DHT22;27636;52.610;13.244;2024-02-15T22:38:16;11.80;99.90
41944;DHT22;27636;52.610;13.244;2024-02-15T22:43:23;11.70;99.90
41944;DHT22;27636;52.610;13.244;2024-02-15T22:48:29;11.30;99.90
41944;DHT22;27636;52.610;13.244;2024-02-15T22:53:38;11.00;99.90
41944;DHT22;27636;52.610;13.244;2024-02-15T22:58:44;10.70;99.90
41944;DHT22;27636;52.610;13.244;2024-02-15T23:03:48;10.60;99.90
41944;DHT22;27636;52.610;13.244;2024-02-15T23:08:54;10.50;99.90
41944;DHT22;27636;52.610;13.244;2024-02-15T23:13:58;10.40;99.90
41944;DHT22;27636;52.610;13.244;2024-02-15T23:19:02;10.30;99.90
41944;DHT22;27636;52.610;13.244;2024-02-15T23:24:10;10.10;99.90
41944;DHT22;27636;52.610;13.244;2024-02-15T23:29:13;10.20;99.90
41944;DHT22;27636;52.610;13.244;2024-02-15T23:34:20;10.20;99.90
41944;DHT22;27636;52.610;13.244;2024-02-15T23:39:26;9.90;99.90
41944;DHT22;27636;52.610;13.244;2024-02-15T23:44:50;9.90;99.90
41944;DHT22;27636;52.610;13.244;2024-02-15T23:49:56;9.70;99.90
41944;DHT22;27636;52.610;13.244;2024-02-15T23:55:03;9.80;99.90
